• Join FlightAware (Why Join?)
  • Login
  • US Flag 
11:16AM EST


 

Airport Tracker/Info


-or-


 

Live Flight TrackerFlight Track Log ✈ EJA941 ✈ 11-Jan-2014 ✈ KSDL - KOMA

Flight Track Log - Related Links

Times and Time Zones

All times are in EST time to prevent confusion due to time zone crossing. See the EJA941 flight status page for this flight to view local times or setup timezone preferences in your user account.

Time Position Orientation Groundspeed Altitude Reporting Facility
EST Latitude Longitude Course Direction KTS MPH feet Rate Location/Type
12:02PM 33.6167 -111.9333 239° Southwest 199 229 2,400  Level Phoenix TRACON
12:03PM 33.6000 -111.9667 239° Southwest 216 249 4,200 3,300 Climbing Phoenix TRACON
12:04PM 33.6667 -112.0000 337° Northwest 253 291 7,700 2,760 Climbing Phoenix TRACON
12:05PM 33.7192 -111.9650 29° Northeast 255 293 10,400 2,640 Climbing Albuquerque Center
12:06PM 33.8039 -111.9125 27° Northeast 284 327 13,300 2,580 Climbing Albuquerque Center
12:07PM 33.8803 -111.8683 26° Northeast 302 348 15,800 2,220 Climbing Albuquerque Center
12:08PM 33.9644 -111.8114 29° Northeast 311 358 17,900 1,320 Climbing Albuquerque Center
12:09PM 34.0469 -111.7367 37° Northeast 370 426 18,600 780 Climbing Albuquerque Center
12:10PM 34.1436 -111.6744 28° Northeast 392 451 19,600 960 Climbing Albuquerque Center
12:11PM 34.2303 -111.5756 43° Northeast 424 488 20,600 1,200 Climbing Albuquerque Center
12:12PM 34.3189 -111.4725 44° Northeast 437 503 22,100 1,500 Climbing Albuquerque Center
12:13PM 34.4075 -111.3681 44° Northeast 443 510 23,700 1,500 Climbing Albuquerque Center
12:14PM 34.4975 -111.2617 44° Northeast 449 517 25,300 1,500 Climbing Albuquerque Center
12:15PM 34.5883 -111.1536 44° Northeast 455 524 26,900 1,680 Climbing Albuquerque Center
12:16PM 34.6994 -111.0214 44° Northeast 464 534 28,800 1,680 Climbing Albuquerque Center
12:17PM 34.7928 -110.9086 45° Northeast 470 541 30,400 1,500 Climbing Albuquerque Center
12:18PM 34.8897 -110.7944 44° Northeast 481 554 32,000 1,560 Climbing Albuquerque Center
12:20PM 34.9922 -110.6683 45° Northeast 484 557 33,700 1,560 Climbing Albuquerque Center
12:21PM 35.0844 -110.5569 45° Northeast 487 560 35,300 1,560 Climbing Albuquerque Center
12:22PM 35.1939 -110.4275 44° Northeast 489 563 37,000 1,560 Climbing Albuquerque Center
12:23PM 35.2836 -110.3161 45° Northeast 484 557 38,600 1,140 Climbing Albuquerque Center
12:24PM 35.3900 -110.1881 44° Northeast 481 554 39,400 1,020 Climbing Albuquerque Center
12:25PM 35.4806 -110.0764 45° Northeast 481 554 40,700 720 Climbing Albuquerque Center
12:26PM 35.5878 -109.9456 45° Northeast 485 558 41,000 120 Climbing Albuquerque Center
12:27PM 35.6794 -109.8289 46° Northeast 492 566 41,000  Level Albuquerque Center
12:28PM 35.7767 -109.6775 52° Northeast 501 577 41,000  Level Albuquerque Center
12:29PM 35.8589 -109.5464 52° Northeast 504 580 41,000  Level Albuquerque Center
12:30PM 35.9403 -109.4161 52° Northeast 502 578 41,000  Level Albuquerque Center
12:31PM 36.0358 -109.2619 53° Northeast 503 579 41,000  Level Albuquerque Center
12:32PM 36.1072 -109.1361 55° Northeast 503 579 41,000  Level Albuquerque Center
12:33PM 36.1914 -108.9508 61° Northeast 510 587 41,000  Level Albuquerque Center
12:34PM 36.2611 -108.8031 60° Northeast 508 585 41,000  Level Albuquerque Center
12:35PM 36.3292 -108.6564 60° Northeast 508 585 41,000  Level Albuquerque Center
12:36PM 36.4078 -108.4856 60° Northeast 509 586 41,000  Level Albuquerque Center
12:37PM 36.4750 -108.3386 60° Northeast 510 587 41,000  Level Albuquerque Center
12:38PM 36.5544 -108.1661 60° Northeast 512 589 41,000  Level Albuquerque Center
12:40PM 36.6547 -107.9442 61° Northeast 510 587 41,000  Level Denver Center
12:41PM 36.7325 -107.7725 60° Northeast 510 587 41,000  Level Denver Center
12:42PM 36.7889 -107.6497 60° Northeast 511 588 41,000  Level Denver Center
12:43PM 36.8661 -107.4758 61° Northeast 513 590 41,000  Level Denver Center
12:44PM 36.9447 -107.3006 61° Northeast 516 594 41,000  Level Denver Center
12:45PM 37.0106 -107.1522 61° Northeast 511 588 41,000  Level Denver Center
12:46PM 37.0875 -106.9775 61° Northeast 513 590 41,000  Level Denver Center
12:47PM 37.1517 -106.8317 61° Northeast 501 577 41,000  Level Denver Center
12:48PM 37.2247 -106.6636 61° Northeast 492 566 41,000  Level Denver Center
12:49PM 37.2881 -106.5172 61° Northeast 499 574 41,000  Level Denver Center
12:50PM 37.3631 -106.3414 62° Northeast 510 587 41,000  Level Denver Center
12:51PM 37.4306 -106.1903 61° Northeast 516 594 41,000  Level Denver Center
12:52PM 37.5064 -106.0119 62° Northeast 517 595 41,000  Level Denver Center
12:53PM 37.5744 -105.8497 62° Northeast 521 600 41,000  Level Denver Center
12:54PM 37.6417 -105.6953 61° Northeast 524 603 41,000  Level Denver Center
12:55PM 37.7183 -105.5122 62° Northeast 527 606 41,000  Level Denver Center
12:56PM 37.7844 -105.3533 62° Northeast 531 611 41,000  Level Denver Center
12:57PM 37.8636 -105.1658 62° Northeast 538 619 41,000  Level Denver Center
12:58PM 37.9303 -105.0053 62° Northeast 537 618 41,000  Level Denver Center
12:59PM 37.9964 -104.8442 62° Northeast 536 617 41,000  Level Denver Center
01:00PM 38.0808 -104.6397 62° Northeast 512 589 41,000  Level Denver Center
01:02PM 38.1531 -104.4628 63° Northeast 504 580 41,000  Level Denver Center
01:03PM 38.2144 -104.3117 63° Northeast 501 577 41,000  Level Denver Center
01:04PM 38.2764 -104.1600 62° Northeast 501 577 41,000  Level Denver Center
01:05PM 38.3478 -103.9808 63° Northeast 506 582 41,000  Level Denver Center
01:06PM 38.4106 -103.8236 63° Northeast 515 593 41,000  Level Denver Center
01:07PM 38.4833 -103.6414 63° Northeast 515 593 41,000  Level Denver Center
01:08PM 38.5450 -103.4844 63° Northeast 515 593 41,000  Level Denver Center
01:09PM 38.6108 -103.3169 63° Northeast 512 589 41,000  Level Denver Center
01:10PM 38.6742 -103.1561 63° Northeast 510 587 41,000  Level Denver Center
01:11PM 38.7378 -102.9908 64° Northeast 518 596 41,000  Level Denver Center
01:12PM 38.8306 -102.7531 63° Northeast 524 603 41,000  Level Denver Center
01:13PM 38.8922 -102.5906 64° Northeast 527 606 41,000  Level Denver Center
01:14PM 38.9544 -102.4294 64° Northeast 527 606 41,000  Level Denver Center
01:15PM 39.0256 -102.2417 64° Northeast 524 603 41,000  Level Denver Center
01:16PM 39.0864 -102.0800 64° Northeast 523 602 41,000  Level Denver Center
01:17PM 39.1675 -101.8656 64° Northeast 523 602 41,000  Level Denver Center
01:18PM 39.2325 -101.6919 64° Northeast 524 603 41,000  Level Denver Center
01:20PM 39.3022 -101.5019 65° Northeast 526 605 41,000  Level Denver Center
01:21PM 39.3636 -101.3386 64° Northeast 530 610 41,000  Level Denver Center
01:22PM 39.4339 -101.1450 65° Northeast 534 615 41,000  Level Denver Center
01:23PM 39.4942 -100.9794 65° Northeast 532 612 41,000  Level Denver Center
01:24PM 39.5628 -100.7872 65° Northeast 529 609 41,000  Level Denver Center
01:25PM 39.6222 -100.6239 65° Northeast 526 605 41,000  Level Denver Center
01:26PM 39.6919 -100.4300 65° Northeast 532 612 41,000 -240 Level Denver Center
01:27PM 39.7506 -100.2639 65° Northeast 531 611 40,600 -660 Descending Denver Center
01:28PM 39.8078 -100.1033 65° Northeast 506 582 39,700 -1,020 Descending Denver Center
01:29PM 39.8739 -99.9422 62° Northeast 507 583 38,600 -1,140 Descending Denver Center
01:30PM 39.9617 -99.7706 56° Northeast 476 548 37,400 -1,080 Descending Denver Center
01:31PM 40.0367 -99.6219 57° Northeast 488 562 36,400 -840 Descending Denver Center
01:32PM 40.1133 -99.4686 57° Northeast 502 578 35,700 -1,260 Descending Denver Center
01:33PM 40.1869 -99.3208 57° Northeast 490 564 33,900 -1,320 Descending Denver Center
01:34PM 40.2575 -99.1764 57° Northeast 473 544 33,000 -480 Descending Denver Center
01:35PM 40.3144 -99.0153 65° Northeast 488 562 33,000  Level Denver Center
01:36PM 40.3692 -98.8519 66° East 492 566 33,000  Level Minneapolis Center
01:37PM 40.4222 -98.6869 67° East 493 567 33,000  Level Minneapolis Center
01:38PM 40.4767 -98.5253 66° East 490 564 33,000  Level Minneapolis Center
01:39PM 40.5208 -98.3575 71° East 492 566 33,000 -420 Level Minneapolis Center
01:40PM 40.5531 -98.1833 76° East 494 568 32,200 -1,080 Descending Minneapolis Center
01:41PM 40.5847 -98.0089 77° East 492 566 30,800 -1,380 Descending Minneapolis Center
01:42PM 40.6192 -97.8350 75° East 493 567 29,400 -1,320 Descending Minneapolis Center
01:43PM 40.6886 -97.6417 65° Northeast 488 562 28,200 -1,080 Descending Minneapolis Center
01:44PM 40.7469 -97.4803 64° Northeast 489 563 27,200 -1,020 Descending Minneapolis Center
01:45PM 40.8033 -97.3250 64° Northeast 484 557 26,200 -1,020 Descending Minneapolis Center
01:46PM 40.8581 -97.1714 65° Northeast 475 547 25,200 -1,080 Descending Minneapolis Center
01:47PM 40.9117 -97.0203 65° Northeast 465 535 24,100 -1,800 Descending Minneapolis Center
01:48PM 40.9517 -96.8667 71° East 436 502 21,700 -2,280 Descending Minneapolis Center
01:48PM 40.9639 -96.8725 340° North 455 524 21,800 -2,520 Climbing Minneapolis Center
01:48PM 40.9756 -96.8064 77° East 435 501 20,700 -2,340 Descending Minneapolis Center
01:49PM 41.0161 -96.7269 56° Northeast 446 513 19,400 -2,400 Descending Minneapolis Center
01:49PM 41.0294 -96.6572 76° East 453 521 18,300 -2,520 Descending Minneapolis Center
01:50PM 41.0667 -96.5775 58° Northeast 446 513 16,800 -2,580 Descending Minneapolis Center
01:50PM 41.0694 -96.5261 86° East 401 461 16,000 -2,760 Descending Minneapolis Center
01:51PM 41.1022 -96.4097 69° East 403 464 14,000 -2,460 Descending Minneapolis Center
01:51PM 41.1008 -96.3872 95° East 387 445 13,500 -2,340 Descending Minneapolis Center
01:52PM 41.1292 -96.2747 71° East 387 445 11,600 -2,220 Descending Minneapolis Center
01:52PM 41.1300 -96.2514 87° East 362 417 11,300 -1,320 Descending Minneapolis Center
01:53PM 41.1517 -96.1600 72° East 336 387 10,300 -1,320 Descending Minneapolis Center
01:53PM 41.1522 -96.1408 88° East 299 344 10,000 -1,860 Descending Minneapolis Center
01:54PM 41.1717 -96.0597 72° East 306 352 8,400 -2,280 Descending Minneapolis Center
01:55PM 41.1764 -96.0275 79° East 261 300 7,500 -2,400 Descending Minneapolis Center
01:55PM 41.1894 -95.9692 73° East 278 320 6,000 -2,400 Descending Minneapolis Center
01:56PM 41.1958 -95.9422 73° East 231 266 5,100 -2,520 Descending Minneapolis Center
01:56PM 41.2106 -95.8794 73° East 188 216 3,200 -1,560 Descending Minneapolis Center
01:57PM 41.2394 -95.8456 41° Northeast 178 205 2,300 -1,020 Descending Minneapolis Center
01:57PM 41.2461 -95.8503 332° Northwest 127 146 2,200 -720 Descending Minneapolis Center
01:58PM 41.2722 -95.8611 343° North 144 166 1,600 -720 Descending Minneapolis Center
01:59PM 41.2767 -95.8689 307° West 115 132 1,500 -600 Descending Minneapolis Center
01:59PM 41.2981 -95.8856 330° Northwest 127 146 1,000 -540 Descending Minneapolis Center
02:01PM 41.3000 -95.8833 331° Northwest  Level FlightAware Approximate